sensor_id;sensor_type;location;lat;lon;timestamp;P1;durP1;ratioP1;P2;durP2;ratioP2
19907;SDS011;10116;53.112;7.356;2023-06-14T00:01:37;2.00;;;1.60;;
19907;SDS011;10116;53.112;7.356;2023-06-14T00:04:03;3.27;;;1.90;;
19907;SDS011;10116;53.112;7.356;2023-06-14T00:06:30;1.80;;;1.67;;
19907;SDS011;10116;53.112;7.356;2023-06-14T00:08:55;2.30;;;1.47;;
19907;SDS011;10116;53.112;7.356;2023-06-14T00:11:21;1.63;;;1.53;;
19907;SDS011;10116;53.112;7.356;2023-06-14T00:13:46;2.00;;;1.90;;
19907;SDS011;10116;53.112;7.356;2023-06-14T00:16:12;2.97;;;1.30;;
19907;SDS011;10116;53.112;7.356;2023-06-14T00:18:38;1.30;;;1.30;;
19907;SDS011;10116;53.112;7.356;2023-06-14T00:21:04;1.40;;;1.30;;
19907;SDS011;10116;53.112;7.356;2023-06-14T00:23:30;2.43;;;1.80;;
19907;SDS011;10116;53.112;7.356;2023-06-14T00:25:55;1.83;;;1.17;;
19907;SDS011;10116;53.112;7.356;2023-06-14T00:28:21;1.50;;;1.40;;
19907;SDS011;10116;53.112;7.356;2023-06-14T00:30:47;1.20;;;1.20;;
19907;SDS011;10116;53.112;7.356;2023-06-14T00:33:13;1.40;;;1.40;;
19907;SDS011;10116;53.112;7.356;2023-06-14T00:35:38;1.30;;;1.30;;
19907;SDS011;10116;53.112;7.356;2023-06-14T00:38:04;1.57;;;1.00;;
19907;SDS011;10116;53.112;7.356;2023-06-14T00:40:30;2.93;;;1.20;;
19907;SDS011;10116;53.112;7.356;2023-06-14T00:42:56;1.17;;;1.07;;
19907;SDS011;10116;53.112;7.356;2023-06-14T00:45:21;1.30;;;1.20;;
19907;SDS011;10116;53.112;7.356;2023-06-14T00:47:47;1.90;;;1.80;;
19907;SDS011;10116;53.112;7.356;2023-06-14T00:50:16;2.70;;;1.40;;
19907;SDS011;10116;53.112;7.356;2023-06-14T00:52:42;1.27;;;1.20;;
19907;SDS011;10116;53.112;7.356;2023-06-14T00:55:08;1.50;;;1.40;;
19907;SDS011;10116;53.112;7.356;2023-06-14T00:57:33;1.43;;;1.43;;
19907;SDS011;10116;53.112;7.356;2023-06-14T01:00:02;1.57;;;1.43;;
19907;SDS011;10116;53.112;7.356;2023-06-14T01:02:29;1.30;;;1.20;;
19907;SDS011;10116;53.112;7.356;2023-06-14T01:04:55;1.40;;;1.30;;
19907;SDS011;10116;53.112;7.356;2023-06-14T01:07:33;1.40;;;1.30;;
19907;SDS011;10116;53.112;7.356;2023-06-14T01:13:11;1.40;;;1.30;;
19907;SDS011;10116;53.112;7.356;2023-06-14T01:15:53;1.77;;;1.67;;
19907;SDS011;10116;53.112;7.356;2023-06-14T01:18:22;1.10;;;1.10;;
19907;SDS011;10116;53.112;7.356;2023-06-14T01:20:49;1.23;;;1.23;;
19907;SDS011;10116;53.112;7.356;2023-06-14T01:23:18;1.97;;;1.87;;
19907;SDS011;10116;53.112;7.356;2023-06-14T01:25:45;1.40;;;1.30;;
19907;SDS011;10116;53.112;7.356;2023-06-14T01:28:12;1.23;;;1.13;;
19907;SDS011;10116;53.112;7.356;2023-06-14T01:30:41;3.80;;;1.37;;
19907;SDS011;10116;53.112;7.356;2023-06-14T01:33:14;1.60;;;1.50;;
19907;SDS011;10116;53.112;7.356;2023-06-14T01:35:45;1.37;;;1.27;;
19907;SDS011;10116;53.112;7.356;2023-06-14T01:38:12;1.90;;;1.23;;
19907;SDS011;10116;53.112;7.356;2023-06-14T01:40:39;1.13;;;1.13;;
19907;SDS011;10116;53.112;7.356;2023-06-14T01:43:05;1.50;;;1.40;;
19907;SDS011;10116;53.112;7.356;2023-06-14T01:45:32;1.20;;;1.20;;
19907;SDS011;10116;53.112;7.356;2023-06-14T01:47:59;1.17;;;1.17;;
19907;SDS011;10116;53.112;7.356;2023-06-14T01:50:31;1.10;;;1.10;;
19907;SDS011;10116;53.112;7.356;2023-06-14T01:52:57;1.77;;;1.60;;
19907;SDS011;10116;53.112;7.356;2023-06-14T01:55:23;1.47;;;1.37;;
19907;SDS011;10116;53.112;7.356;2023-06-14T01:57:52;1.87;;;1.30;;
19907;SDS011;10116;53.112;7.356;2023-06-14T02:00:18;1.40;;;1.40;;
19907;SDS011;10116;53.112;7.356;2023-06-14T02:02:44;1.60;;;1.50;;
19907;SDS011;10116;53.112;7.356;2023-06-14T02:05:10;1.57;;;1.47;;
19907;SDS011;10116;53.112;7.356;2023-06-14T02:07:36;3.20;;;1.50;;
19907;SDS011;10116;53.112;7.356;2023-06-14T02:10:03;1.50;;;1.40;;
19907;SDS011;10116;53.112;7.356;2023-06-14T02:12:29;1.60;;;1.50;;
19907;SDS011;10116;53.112;7.356;2023-06-14T02:14:55;3.57;;;1.30;;
19907;SDS011;10116;53.112;7.356;2023-06-14T02:17:21;1.30;;;1.30;;
19907;SDS011;10116;53.112;7.356;2023-06-14T02:19:47;1.67;;;1.10;;
19907;SDS011;10116;53.112;7.356;2023-06-14T02:22:13;6.53;;;1.10;;
19907;SDS011;10116;53.112;7.356;2023-06-14T02:24:40;1.60;;;1.50;;
19907;SDS011;10116;53.112;7.356;2023-06-14T02:27:07;1.50;;;1.40;;
19907;SDS011;10116;53.112;7.356;2023-06-14T02:29:35;2.90;;;1.70;;
19907;SDS011;10116;53.112;7.356;2023-06-14T02:32:00;1.23;;;1.20;;
19907;SDS011;10116;53.112;7.356;2023-06-14T02:34:26;1.43;;;1.40;;
19907;SDS011;10116;53.112;7.356;2023-06-14T02:36:52;1.60;;;1.50;;
19907;SDS011;10116;53.112;7.356;2023-06-14T02:39:17;1.53;;;1.40;;
19907;SDS011;10116;53.112;7.356;2023-06-14T02:41:45;1.10;;;1.10;;
19907;SDS011;10116;53.112;7.356;2023-06-14T02:44:12;1.37;;;1.37;;
19907;SDS011;10116;53.112;7.356;2023-06-14T02:46:38;1.20;;;1.20;;
19907;SDS011;10116;53.112;7.356;2023-06-14T02:49:04;2.10;;;1.27;;
19907;SDS011;10116;53.112;7.356;2023-06-14T02:51:30;1.97;;;1.50;;
19907;SDS011;10116;53.112;7.356;2023-06-14T02:53:56;1.37;;;1.27;;
19907;SDS011;10116;53.112;7.356;2023-06-14T02:56:21;1.50;;;1.40;;
19907;SDS011;10116;53.112;7.356;2023-06-14T02:58:47;1.57;;;1.30;;
19907;SDS011;10116;53.112;7.356;2023-06-14T03:01:13;1.70;;;1.60;;
19907;SDS011;10116;53.112;7.356;2023-06-14T03:03:39;1.50;;;1.40;;
19907;SDS011;10116;53.112;7.356;2023-06-14T03:06:05;1.23;;;1.23;;
19907;SDS011;10116;53.112;7.356;2023-06-14T03:08:31;1.53;;;1.43;;
19907;SDS011;10116;53.112;7.356;2023-06-14T03:11:03;1.50;;;1.50;;
19907;SDS011;10116;53.112;7.356;2023-06-14T03:13:32;4.03;;;1.23;;
19907;SDS011;10116;53.112;7.356;2023-06-14T03:15:59;2.13;;;1.80;;
19907;SDS011;10116;53.112;7.356;2023-06-14T03:18:27;1.60;;;1.50;;
19907;SDS011;10116;53.112;7.356;2023-06-14T03:20:55;2.07;;;1.63;;
19907;SDS011;10116;53.112;7.356;2023-06-14T03:23:23;1.23;;;1.23;;
19907;SDS011;10116;53.112;7.356;2023-06-14T03:25:50;3.60;;;1.30;;
19907;SDS011;10116;53.112;7.356;2023-06-14T03:28:16;1.57;;;1.47;;
19907;SDS011;10116;53.112;7.356;2023-06-14T03:30:42;1.40;;;1.30;;
19907;SDS011;10116;53.112;7.356;2023-06-14T03:33:08;3.07;;;1.33;;
19907;SDS011;10116;53.112;7.356;2023-06-14T03:35:34;1.23;;;1.23;;
19907;SDS011;10116;53.112;7.356;2023-06-14T03:38:00;1.33;;;1.27;;
19907;SDS011;10116;53.112;7.356;2023-06-14T03:40:25;1.63;;;1.37;;
19907;SDS011;10116;53.112;7.356;2023-06-14T03:42:53;2.80;;;1.57;;
19907;SDS011;10116;53.112;7.356;2023-06-14T03:45:19;1.43;;;1.33;;
19907;SDS011;10116;53.112;7.356;2023-06-14T03:47:45;2.33;;;1.43;;
19907;SDS011;10116;53.112;7.356;2023-06-14T03:50:11;1.80;;;1.33;;
19907;SDS011;10116;53.112;7.356;2023-06-14T03:52:37;1.60;;;1.50;;
19907;SDS011;10116;53.112;7.356;2023-06-14T03:55:03;3.47;;;1.37;;
19907;SDS011;10116;53.112;7.356;2023-06-14T03:57:29;1.40;;;1.30;;
19907;SDS011;10116;53.112;7.356;2023-06-14T03:59:55;1.50;;;1.40;;
19907;SDS011;10116;53.112;7.356;2023-06-14T04:02:21;2.40;;;1.70;;
19907;SDS011;10116;53.112;7.356;2023-06-14T04:04:47;1.70;;;1.60;;
19907;SDS011;10116;53.112;7.356;2023-06-14T04:07:13;1.57;;;1.50;;
19907;SDS011;10116;53.112;7.356;2023-06-14T04:09:44;1.70;;;1.20;;
19907;SDS011;10116;53.112;7.356;2023-06-14T04:12:10;1.60;;;1.60;;
19907;SDS011;10116;53.112;7.356;2023-06-14T04:14:36;1.37;;;1.30;;
19907;SDS011;10116;53.112;7.356;2023-06-14T04:17:02;2.00;;;1.33;;
19907;SDS011;10116;53.112;7.356;2023-06-14T04:19:28;4.00;;;1.87;;
19907;SDS011;10116;53.112;7.356;2023-06-14T04:21:54;2.60;;;1.80;;
19907;SDS011;10116;53.112;7.356;2023-06-14T04:24:19;1.63;;;1.53;;
19907;SDS011;10116;53.112;7.356;2023-06-14T04:26:45;1.93;;;1.83;;
19907;SDS011;10116;53.112;7.356;2023-06-14T04:29:13;1.67;;;1.53;;
19907;SDS011;10116;53.112;7.356;2023-06-14T04:31:42;2.50;;;1.40;;
19907;SDS011;10116;53.112;7.356;2023-06-14T04:34:09;2.30;;;1.80;;
19907;SDS011;10116;53.112;7.356;2023-06-14T04:36:40;1.63;;;1.53;;
19907;SDS011;10116;53.112;7.356;2023-06-14T04:39:12;2.10;;;2.00;;
19907;SDS011;10116;53.112;7.356;2023-06-14T04:41:38;2.70;;;1.67;;
19907;SDS011;10116;53.112;7.356;2023-06-14T04:44:03;2.70;;;2.20;;
19907;SDS011;10116;53.112;7.356;2023-06-14T04:46:29;1.97;;;1.87;;
19907;SDS011;10116;53.112;7.356;2023-06-14T04:48:56;1.87;;;1.77;;
19907;SDS011;10116;53.112;7.356;2023-06-14T04:51:22;9.17;;;1.80;;
19907;SDS011;10116;53.112;7.356;2023-06-14T04:53:55;1.70;;;1.60;;
19907;SDS011;10116;53.112;7.356;2023-06-14T04:56:23;4.30;;;1.50;;
19907;SDS011;10116;53.112;7.356;2023-06-14T04:58:51;1.83;;;1.60;;
19907;SDS011;10116;53.112;7.356;2023-06-14T05:01:18;1.77;;;1.60;;
19907;SDS011;10116;53.112;7.356;2023-06-14T05:03:44;1.67;;;1.57;;
19907;SDS011;10116;53.112;7.356;2023-06-14T05:06:10;1.70;;;1.60;;
19907;SDS011;10116;53.112;7.356;2023-06-14T05:08:36;4.37;;;1.73;;
19907;SDS011;10116;53.112;7.356;2023-06-14T05:11:02;1.80;;;1.70;;
19907;SDS011;10116;53.112;7.356;2023-06-14T05:13:28;2.67;;;1.60;;
19907;SDS011;10116;53.112;7.356;2023-06-14T05:15:53;1.90;;;1.60;;
19907;SDS011;10116;53.112;7.356;2023-06-14T05:18:19;2.07;;;1.97;;
19907;SDS011;10116;53.112;7.356;2023-06-14T05:20:45;1.63;;;1.57;;
19907;SDS011;10116;53.112;7.356;2023-06-14T05:23:11;2.03;;;1.93;;
19907;SDS011;10116;53.112;7.356;2023-06-14T05:25:41;2.60;;;1.93;;
19907;SDS011;10116;53.112;7.356;2023-06-14T05:28:11;5.93;;;2.60;;
19907;SDS011;10116;53.112;7.356;2023-06-14T05:30:39;7.30;;;3.20;;
19907;SDS011;10116;53.112;7.356;2023-06-14T05:33:05;9.13;;;2.53;;
19907;SDS011;10116;53.112;7.356;2023-06-14T05:35:31;5.10;;;2.40;;
19907;SDS011;10116;53.112;7.356;2023-06-14T05:37:56;4.77;;;2.10;;
19907;SDS011;10116;53.112;7.356;2023-06-14T05:40:22;2.93;;;2.10;;
19907;SDS011;10116;53.112;7.356;2023-06-14T05:42:47;6.63;;;2.20;;
19907;SDS011;10116;53.112;7.356;2023-06-14T05:45:13;2.00;;;1.90;;
19907;SDS011;10116;53.112;7.356;2023-06-14T05:47:40;3.03;;;2.30;;
19907;SDS011;10116;53.112;7.356;2023-06-14T05:50:07;9.23;;;3.00;;
19907;SDS011;10116;53.112;7.356;2023-06-14T05:52:33;2.47;;;2.30;;
19907;SDS011;10116;53.112;7.356;2023-06-14T05:54:59;2.07;;;1.97;;
19907;SDS011;10116;53.112;7.356;2023-06-14T05:57:25;3.97;;;2.10;;
19907;SDS011;10116;53.112;7.356;2023-06-14T05:59:50;5.87;;;2.50;;
19907;SDS011;10116;53.112;7.356;2023-06-14T06:02:16;3.10;;;2.80;;
19907;SDS011;10116;53.112;7.356;2023-06-14T06:04:42;4.73;;;2.47;;
19907;SDS011;10116;53.112;7.356;2023-06-14T06:07:07;6.37;;;2.50;;
19907;SDS011;10116;53.112;7.356;2023-06-14T06:09:33;2.30;;;2.20;;
19907;SDS011;10116;53.112;7.356;2023-06-14T06:11:58;2.70;;;2.50;;
19907;SDS011;10116;53.112;7.356;2023-06-14T06:14:24;3.10;;;1.90;;
19907;SDS011;10116;53.112;7.356;2023-06-14T06:16:50;2.50;;;2.30;;
19907;SDS011;10116;53.112;7.356;2023-06-14T06:19:17;2.07;;;1.97;;
19907;SDS011;10116;53.112;7.356;2023-06-14T06:21:43;3.00;;;2.63;;
19907;SDS011;10116;53.112;7.356;2023-06-14T06:24:09;3.00;;;2.23;;
19907;SDS011;10116;53.112;7.356;2023-06-14T06:26:34;6.30;;;2.90;;
19907;SDS011;10116;53.112;7.356;2023-06-14T06:29:00;2.30;;;2.20;;
19907;SDS011;10116;53.112;7.356;2023-06-14T06:31:26;2.80;;;2.50;;
19907;SDS011;10116;53.112;7.356;2023-06-14T06:33:52;2.67;;;2.57;;
19907;SDS011;10116;53.112;7.356;2023-06-14T06:36:19;2.30;;;2.10;;
19907;SDS011;10116;53.112;7.356;2023-06-14T06:38:46;3.00;;;2.43;;
19907;SDS011;10116;53.112;7.356;2023-06-14T06:41:12;2.70;;;2.50;;
19907;SDS011;10116;53.112;7.356;2023-06-14T06:43:37;2.20;;;2.10;;
19907;SDS011;10116;53.112;7.356;2023-06-14T06:46:03;3.00;;;2.10;;
19907;SDS011;10116;53.112;7.356;2023-06-14T06:48:29;3.07;;;2.37;;
19907;SDS011;10116;53.112;7.356;2023-06-14T06:50:55;8.27;;;2.40;;
19907;SDS011;10116;53.112;7.356;2023-06-14T06:53:20;2.17;;;2.07;;
19907;SDS011;10116;53.112;7.356;2023-06-14T06:55:46;3.27;;;2.13;;
19907;SDS011;10116;53.112;7.356;2023-06-14T06:58:12;2.47;;;2.27;;
19907;SDS011;10116;53.112;7.356;2023-06-14T07:00:38;2.53;;;2.33;;
19907;SDS011;10116;53.112;7.356;2023-06-14T07:03:04;2.60;;;2.00;;
19907;SDS011;10116;53.112;7.356;2023-06-14T07:05:30;2.93;;;2.23;;
19907;SDS011;10116;53.112;7.356;2023-06-14T07:07:56;3.70;;;2.33;;
19907;SDS011;10116;53.112;7.356;2023-06-14T07:10:22;2.87;;;2.23;;
19907;SDS011;10116;53.112;7.356;2023-06-14T07:12:49;2.53;;;2.33;;
19907;SDS011;10116;53.112;7.356;2023-06-14T07:15:15;3.37;;;2.10;;
19907;SDS011;10116;53.112;7.356;2023-06-14T07:17:41;2.40;;;2.30;;
19907;SDS011;10116;53.112;7.356;2023-06-14T07:20:07;3.87;;;2.37;;
19907;SDS011;10116;53.112;7.356;2023-06-14T07:22:39;5.23;;;3.00;;
19907;SDS011;10116;53.112;7.356;2023-06-14T07:25:08;11.03;;;2.60;;
19907;SDS011;10116;53.112;7.356;2023-06-14T07:27:35;7.63;;;2.60;;
19907;SDS011;10116;53.112;7.356;2023-06-14T07:30:00;6.20;;;2.17;;
19907;SDS011;10116;53.112;7.356;2023-06-14T07:32:26;2.40;;;2.20;;
19907;SDS011;10116;53.112;7.356;2023-06-14T07:34:51;2.30;;;2.10;;
19907;SDS011;10116;53.112;7.356;2023-06-14T07:37:17;2.83;;;2.17;;
19907;SDS011;10116;53.112;7.356;2023-06-14T07:39:42;6.20;;;2.50;;
19907;SDS011;10116;53.112;7.356;2023-06-14T07:42:08;2.27;;;1.93;;
19907;SDS011;10116;53.112;7.356;2023-06-14T07:44:34;2.10;;;2.00;;
19907;SDS011;10116;53.112;7.356;2023-06-14T07:46:59;3.13;;;2.40;;
19907;SDS011;10116;53.112;7.356;2023-06-14T07:49:26;2.73;;;1.90;;
19907;SDS011;10116;53.112;7.356;2023-06-14T07:51:52;2.30;;;2.10;;
19907;SDS011;10116;53.112;7.356;2023-06-14T07:54:18;3.03;;;1.97;;
19907;SDS011;10116;53.112;7.356;2023-06-14T07:56:44;2.00;;;1.90;;
19907;SDS011;10116;53.112;7.356;2023-06-14T07:59:10;1.90;;;1.80;;
19907;SDS011;10116;53.112;7.356;2023-06-14T08:01:35;1.57;;;1.57;;
19907;SDS011;10116;53.112;7.356;2023-06-14T08:04:01;2.93;;;2.73;;
19907;SDS011;10116;53.112;7.356;2023-06-14T08:06:27;7.00;;;1.77;;
19907;SDS011;10116;53.112;7.356;2023-06-14T08:08:52;2.60;;;1.90;;
19907;SDS011;10116;53.112;7.356;2023-06-14T08:11:18;2.03;;;1.93;;
19907;SDS011;10116;53.112;7.356;2023-06-14T08:13:43;2.57;;;2.33;;
19907;SDS011;10116;53.112;7.356;2023-06-14T08:16:09;2.07;;;1.97;;
19907;SDS011;10116;53.112;7.356;2023-06-14T08:18:35;2.13;;;2.03;;
19907;SDS011;10116;53.112;7.356;2023-06-14T08:21:01;6.20;;;2.30;;
19907;SDS011;10116;53.112;7.356;2023-06-14T08:23:28;4.10;;;2.00;;
19907;SDS011;10116;53.112;7.356;2023-06-14T08:25:55;3.53;;;2.20;;
19907;SDS011;10116;53.112;7.356;2023-06-14T08:28:20;1.80;;;1.70;;
19907;SDS011;10116;53.112;7.356;2023-06-14T08:30:46;4.93;;;1.80;;
19907;SDS011;10116;53.112;7.356;2023-06-14T08:33:12;3.13;;;2.30;;
19907;SDS011;10116;53.112;7.356;2023-06-14T08:35:37;2.50;;;1.97;;
19907;SDS011;10116;53.112;7.356;2023-06-14T08:38:04;4.83;;;2.07;;
19907;SDS011;10116;53.112;7.356;2023-06-14T08:40:30;4.83;;;2.30;;
19907;SDS011;10116;53.112;7.356;2023-06-14T08:42:56;2.00;;;1.90;;
19907;SDS011;10116;53.112;7.356;2023-06-14T08:45:22;3.30;;;1.97;;
19907;SDS011;10116;53.112;7.356;2023-06-14T08:47:49;4.90;;;2.17;;
19907;SDS011;10116;53.112;7.356;2023-06-14T08:50:23;3.77;;;2.10;;
19907;SDS011;10116;53.112;7.356;2023-06-14T08:52:55;3.70;;;1.97;;
19907;SDS011;10116;53.112;7.356;2023-06-14T08:55:25;5.70;;;2.23;;
19907;SDS011;10116;53.112;7.356;2023-06-14T08:57:56;2.50;;;1.70;;
19907;SDS011;10116;53.112;7.356;2023-06-14T09:00:23;4.87;;;1.80;;
19907;SDS011;10116;53.112;7.356;2023-06-14T09:02:51;2.40;;;1.90;;
19907;SDS011;10116;53.112;7.356;2023-06-14T09:05:20;1.70;;;1.60;;
19907;SDS011;10116;53.112;7.356;2023-06-14T09:07:48;3.10;;;1.93;;
19907;SDS011;10116;53.112;7.356;2023-06-14T09:10:15;2.73;;;2.40;;
19907;SDS011;10116;53.112;7.356;2023-06-14T09:12:42;2.53;;;2.07;;
19907;SDS011;10116;53.112;7.356;2023-06-14T09:15:08;1.70;;;1.60;;
19907;SDS011;10116;53.112;7.356;2023-06-14T09:17:35;2.20;;;2.00;;
19907;SDS011;10116;53.112;7.356;2023-06-14T09:20:02;3.30;;;1.87;;
19907;SDS011;10116;53.112;7.356;2023-06-14T09:22:31;2.97;;;1.73;;
19907;SDS011;10116;53.112;7.356;2023-06-14T09:24:58;2.67;;;1.63;;
19907;SDS011;10116;53.112;7.356;2023-06-14T09:27:28;1.63;;;1.50;;
19907;SDS011;10116;53.112;7.356;2023-06-14T09:29:54;1.50;;;1.50;;
19907;SDS011;10116;53.112;7.356;2023-06-14T09:32:22;3.30;;;1.80;;
19907;SDS011;10116;53.112;7.356;2023-06-14T09:34:49;1.53;;;1.43;;
19907;SDS011;10116;53.112;7.356;2023-06-14T09:37:26;1.53;;;1.43;;
19907;SDS011;10116;53.112;7.356;2023-06-14T09:39:53;4.90;;;2.07;;
19907;SDS011;10116;53.112;7.356;2023-06-14T09:42:19;3.60;;;1.70;;
19907;SDS011;10116;53.112;7.356;2023-06-14T09:44:46;1.63;;;1.53;;
19907;SDS011;10116;53.112;7.356;2023-06-14T09:47:14;1.70;;;1.60;;
19907;SDS011;10116;53.112;7.356;2023-06-14T09:49:41;1.60;;;1.50;;
19907;SDS011;10116;53.112;7.356;2023-06-14T09:52:10;1.50;;;1.40;;
19907;SDS011;10116;53.112;7.356;2023-06-14T09:54:43;1.43;;;1.40;;
19907;SDS011;10116;53.112;7.356;2023-06-14T09:57:11;1.50;;;1.40;;
19907;SDS011;10116;53.112;7.356;2023-06-14T09:59:42;3.33;;;1.63;;
19907;SDS011;10116;53.112;7.356;2023-06-14T10:02:10;1.57;;;1.47;;
19907;SDS011;10116;53.112;7.356;2023-06-14T10:04:44;1.80;;;1.40;;
19907;SDS011;10116;53.112;7.356;2023-06-14T10:07:17;2.33;;;1.60;;
19907;SDS011;10116;53.112;7.356;2023-06-14T10:09:45;1.63;;;1.53;;
19907;SDS011;10116;53.112;7.356;2023-06-14T10:12:16;1.97;;;1.33;;
19907;SDS011;10116;53.112;7.356;2023-06-14T10:14:46;1.57;;;1.57;;
19907;SDS011;10116;53.112;7.356;2023-06-14T10:18:03;1.33;;;1.23;;
19907;SDS011;10116;53.112;7.356;2023-06-14T10:22:50;1.33;;;1.33;;
19907;SDS011;10116;53.112;7.356;2023-06-14T10:25:27;2.63;;;1.50;;
19907;SDS011;10116;53.112;7.356;2023-06-14T10:30:38;2.70;;;1.97;;
19907;SDS011;10116;53.112;7.356;2023-06-14T10:33:07;4.10;;;1.80;;
19907;SDS011;10116;53.112;7.356;2023-06-14T10:35:33;1.50;;;1.40;;
19907;SDS011;10116;53.112;7.356;2023-06-14T10:38:09;2.10;;;1.40;;
19907;SDS011;10116;53.112;7.356;2023-06-14T10:40:36;3.30;;;1.40;;
19907;SDS011;10116;53.112;7.356;2023-06-14T10:43:20;2.63;;;2.17;;
19907;SDS011;10116;53.112;7.356;2023-06-14T10:48:41;2.03;;;1.50;;
19907;SDS011;10116;53.112;7.356;2023-06-14T10:51:16;3.00;;;1.47;;
19907;SDS011;10116;53.112;7.356;2023-06-14T10:53:49;2.90;;;1.70;;
19907;SDS011;10116;53.112;7.356;2023-06-14T10:56:29;1.40;;;1.40;;
19907;SDS011;10116;53.112;7.356;2023-06-14T10:58:56;2.17;;;1.30;;
19907;SDS011;10116;53.112;7.356;2023-06-14T11:01:38;1.33;;;1.30;;
19907;SDS011;10116;53.112;7.356;2023-06-14T11:04:30;1.37;;;1.37;;
19907;SDS011;10116;53.112;7.356;2023-06-14T11:07:20;1.90;;;1.80;;
19907;SDS011;10116;53.112;7.356;2023-06-14T11:09:52;3.53;;;1.60;;
19907;SDS011;10116;53.112;7.356;2023-06-14T11:12:41;2.30;;;1.40;;
19907;SDS011;10116;53.112;7.356;2023-06-14T11:15:09;3.67;;;1.50;;
19907;SDS011;10116;53.112;7.356;2023-06-14T11:17:34;1.90;;;1.60;;
19907;SDS011;10116;53.112;7.356;2023-06-14T11:20:09;2.50;;;1.60;;
19907;SDS011;10116;53.112;7.356;2023-06-14T11:22:40;3.80;;;1.80;;
19907;SDS011;10116;53.112;7.356;2023-06-14T11:25:10;1.70;;;1.50;;
19907;SDS011;10116;53.112;7.356;2023-06-14T11:27:38;5.20;;;1.80;;
19907;SDS011;10116;53.112;7.356;2023-06-14T11:30:06;2.20;;;1.20;;
19907;SDS011;10116;53.112;7.356;2023-06-14T11:32:33;2.13;;;1.73;;
19907;SDS011;10116;53.112;7.356;2023-06-14T11:34:59;2.03;;;1.70;;
19907;SDS011;10116;53.112;7.356;2023-06-14T11:37:25;2.93;;;1.53;;
19907;SDS011;10116;53.112;7.356;2023-06-14T11:39:55;1.90;;;1.53;;
19907;SDS011;10116;53.112;7.356;2023-06-14T11:42:22;1.73;;;1.63;;
19907;SDS011;10116;53.112;7.356;2023-06-14T11:44:47;1.60;;;1.50;;
19907;SDS011;10116;53.112;7.356;2023-06-14T11:47:14;2.90;;;1.63;;
19907;SDS011;10116;53.112;7.356;2023-06-14T11:49:39;3.00;;;1.60;;
19907;SDS011;10116;53.112;7.356;2023-06-14T11:52:05;1.80;;;1.70;;
19907;SDS011;10116;53.112;7.356;2023-06-14T11:54:31;1.60;;;1.50;;
19907;SDS011;10116;53.112;7.356;2023-06-14T11:56:57;4.10;;;1.80;;
19907;SDS011;10116;53.112;7.356;2023-06-14T11:59:24;2.23;;;1.73;;
19907;SDS011;10116;53.112;7.356;2023-06-14T12:01:50;1.33;;;1.10;;
19907;SDS011;10116;53.112;7.356;2023-06-14T12:04:24;1.93;;;1.83;;
19907;SDS011;10116;53.112;7.356;2023-06-14T12:06:51;3.47;;;1.63;;
19907;SDS011;10116;53.112;7.356;2023-06-14T12:09:18;2.10;;;1.50;;
19907;SDS011;10116;53.112;7.356;2023-06-14T12:11:44;2.87;;;1.73;;
19907;SDS011;10116;53.112;7.356;2023-06-14T12:14:10;1.63;;;1.50;;
19907;SDS011;10116;53.112;7.356;2023-06-14T12:16:39;1.80;;;1.70;;
19907;SDS011;10116;53.112;7.356;2023-06-14T12:19:11;1.83;;;1.70;;
19907;SDS011;10116;53.112;7.356;2023-06-14T12:21:38;2.20;;;1.90;;
19907;SDS011;10116;53.112;7.356;2023-06-14T12:24:07;2.30;;;1.93;;
19907;SDS011;10116;53.112;7.356;2023-06-14T12:26:34;1.73;;;1.57;;
19907;SDS011;10116;53.112;7.356;2023-06-14T12:29:04;2.00;;;1.90;;
19907;SDS011;10116;53.112;7.356;2023-06-14T12:31:31;1.97;;;1.87;;
19907;SDS011;10116;53.112;7.356;2023-06-14T12:33:57;2.07;;;1.90;;
19907;SDS011;10116;53.112;7.356;2023-06-14T12:36:23;1.50;;;1.50;;
19907;SDS011;10116;53.112;7.356;2023-06-14T12:38:48;1.50;;;1.40;;
19907;SDS011;10116;53.112;7.356;2023-06-14T12:41:18;1.47;;;1.40;;
19907;SDS011;10116;53.112;7.356;2023-06-14T12:43:46;2.00;;;1.90;;
19907;SDS011;10116;53.112;7.356;2023-06-14T12:46:11;1.70;;;1.60;;
19907;SDS011;10116;53.112;7.356;2023-06-14T12:48:37;8.87;;;2.10;;
19907;SDS011;10116;53.112;7.356;2023-06-14T12:51:02;2.40;;;1.80;;
19907;SDS011;10116;53.112;7.356;2023-06-14T12:53:28;1.50;;;1.50;;
19907;SDS011;10116;53.112;7.356;2023-06-14T12:55:54;4.03;;;1.90;;
19907;SDS011;10116;53.112;7.356;2023-06-14T12:58:19;1.53;;;1.43;;
19907;SDS011;10116;53.112;7.356;2023-06-14T13:00:45;2.00;;;1.60;;
19907;SDS011;10116;53.112;7.356;2023-06-14T13:03:11;2.10;;;1.90;;
19907;SDS011;10116;53.112;7.356;2023-06-14T13:05:37;4.63;;;1.83;;
19907;SDS011;10116;53.112;7.356;2023-06-14T13:08:05;1.60;;;1.50;;
19907;SDS011;10116;53.112;7.356;2023-06-14T13:10:33;1.83;;;1.73;;
19907;SDS011;10116;53.112;7.356;2023-06-14T13:12:58;3.63;;;1.53;;
19907;SDS011;10116;53.112;7.356;2023-06-14T13:15:25;2.20;;;1.53;;
19907;SDS011;10116;53.112;7.356;2023-06-14T13:17:50;8.50;;;2.17;;
19907;SDS011;10116;53.112;7.356;2023-06-14T13:20:16;3.77;;;1.80;;
19907;SDS011;10116;53.112;7.356;2023-06-14T13:22:42;1.70;;;1.50;;
19907;SDS011;10116;53.112;7.356;2023-06-14T13:25:07;1.90;;;1.80;;
19907;SDS011;10116;53.112;7.356;2023-06-14T13:27:33;2.57;;;1.40;;
19907;SDS011;10116;53.112;7.356;2023-06-14T13:29:59;2.23;;;2.03;;
19907;SDS011;10116;53.112;7.356;2023-06-14T13:32:24;3.33;;;1.70;;
19907;SDS011;10116;53.112;7.356;2023-06-14T13:34:50;2.53;;;1.77;;
19907;SDS011;10116;53.112;7.356;2023-06-14T13:37:16;1.97;;;1.90;;
19907;SDS011;10116;53.112;7.356;2023-06-14T13:39:42;2.70;;;1.60;;
19907;SDS011;10116;53.112;7.356;2023-06-14T13:42:07;2.73;;;1.87;;
19907;SDS011;10116;53.112;7.356;2023-06-14T13:44:33;2.73;;;1.57;;
19907;SDS011;10116;53.112;7.356;2023-06-14T13:46:59;2.93;;;1.80;;
19907;SDS011;10116;53.112;7.356;2023-06-14T13:49:25;1.67;;;1.67;;
19907;SDS011;10116;53.112;7.356;2023-06-14T13:51:51;2.83;;;1.90;;
19907;SDS011;10116;53.112;7.356;2023-06-14T13:54:19;3.13;;;2.07;;
19907;SDS011;10116;53.112;7.356;2023-06-14T13:56:46;2.27;;;2.07;;
19907;SDS011;10116;53.112;7.356;2023-06-14T13:59:11;2.80;;;1.80;;
19907;SDS011;10116;53.112;7.356;2023-06-14T14:01:37;2.03;;;1.83;;
19907;SDS011;10116;53.112;7.356;2023-06-14T14:04:03;5.53;;;1.77;;
19907;SDS011;10116;53.112;7.356;2023-06-14T14:06:29;3.73;;;1.80;;
19907;SDS011;10116;53.112;7.356;2023-06-14T14:08:56;3.23;;;1.90;;
19907;SDS011;10116;53.112;7.356;2023-06-14T14:11:21;1.83;;;1.73;;
19907;SDS011;10116;53.112;7.356;2023-06-14T14:13:47;1.40;;;1.40;;
19907;SDS011;10116;53.112;7.356;2023-06-14T14:16:13;4.50;;;1.70;;
19907;SDS011;10116;53.112;7.356;2023-06-14T14:18:39;2.03;;;1.93;;
19907;SDS011;10116;53.112;7.356;2023-06-14T14:21:04;2.20;;;2.10;;
19907;SDS011;10116;53.112;7.356;2023-06-14T14:23:30;2.30;;;2.10;;
19907;SDS011;10116;53.112;7.356;2023-06-14T14:25:56;2.17;;;2.07;;
19907;SDS011;10116;53.112;7.356;2023-06-14T14:28:22;1.90;;;1.80;;
19907;SDS011;10116;53.112;7.356;2023-06-14T14:30:48;2.00;;;1.90;;
19907;SDS011;10116;53.112;7.356;2023-06-14T14:33:14;2.17;;;1.70;;
19907;SDS011;10116;53.112;7.356;2023-06-14T14:35:43;1.83;;;1.70;;
19907;SDS011;10116;53.112;7.356;2023-06-14T14:38:11;2.53;;;1.77;;
19907;SDS011;10116;53.112;7.356;2023-06-14T14:40:37;2.00;;;1.90;;
19907;SDS011;10116;53.112;7.356;2023-06-14T14:43:02;2.10;;;2.00;;
19907;SDS011;10116;53.112;7.356;2023-06-14T14:45:28;2.83;;;1.97;;
19907;SDS011;10116;53.112;7.356;2023-06-14T14:47:53;4.07;;;2.13;;
19907;SDS011;10116;53.112;7.356;2023-06-14T14:50:19;2.00;;;1.80;;
19907;SDS011;10116;53.112;7.356;2023-06-14T14:52:45;3.20;;;1.90;;
19907;SDS011;10116;53.112;7.356;2023-06-14T14:55:10;3.13;;;2.10;;
19907;SDS011;10116;53.112;7.356;2023-06-14T14:57:36;2.13;;;1.93;;
19907;SDS011;10116;53.112;7.356;2023-06-14T15:00:03;1.90;;;1.80;;